createdAt,value
2019-02-07T00:01:43.650Z,39.97
2019-02-07T00:04:13.157Z,42.63
2019-02-07T00:07:01.729Z,39.73
2019-02-07T00:09:31.795Z,40.43
2019-02-07T00:12:01.341Z,40.20
2019-02-07T00:14:39.519Z,37.00
2019-02-07T00:17:02.181Z,37.10
2019-02-07T00:19:31.876Z,39.00
2019-02-07T00:22:01.505Z,38.93
2019-02-07T00:24:31.036Z,38.50
2019-02-07T00:27:00.563Z,37.17
2019-02-07T00:29:30.458Z,37.30
2019-02-07T00:32:00.105Z,38.17
2019-02-07T00:34:29.758Z,35.00
2019-02-07T00:36:59.316Z,38.50
2019-02-07T00:39:28.927Z,36.20
2019-02-07T00:41:58.445Z,36.13
2019-02-07T00:44:27.968Z,34.83
2019-02-07T00:46:57.659Z,34.83
2019-02-07T00:49:27.219Z,35.83
2019-02-07T00:51:57.295Z,32.80
2019-02-07T00:54:26.880Z,32.67
2019-02-07T00:56:58.161Z,33.70
2019-02-07T00:59:27.830Z,33.47
2019-02-07T01:01:57.467Z,32.27
2019-02-07T01:04:27.135Z,33.60
2019-02-07T01:06:56.655Z,31.20
2019-02-07T01:09:26.167Z,30.67
2019-02-07T01:11:58.962Z,31.43
2019-02-07T01:14:28.474Z,29.37
2019-02-07T01:16:58.178Z,30.80
2019-02-07T01:19:28.028Z,28.27
2019-02-07T01:21:57.606Z,29.57
2019-02-07T01:24:27.187Z,30.70
2019-02-07T01:26:56.848Z,28.47
2019-02-07T01:29:26.350Z,29.77
2019-02-07T01:31:55.906Z,29.63
2019-02-07T01:34:25.864Z,28.70
2019-02-07T01:36:55.834Z,30.27
2019-02-07T01:39:25.405Z,29.10
2019-02-07T01:41:55.207Z,28.57
2019-02-07T01:44:24.814Z,28.47
2019-02-07T01:46:54.528Z,26.87
2019-02-07T01:49:24.380Z,29.67
2019-02-07T01:51:54.398Z,26.43
2019-02-07T01:54:24.114Z,26.63
2019-02-07T01:56:53.642Z,27.23
2019-02-07T01:59:23.145Z,28.57
2019-02-07T02:01:52.828Z,27.17
2019-02-07T02:04:22.531Z,27.67
2019-02-07T02:06:52.079Z,27.93
2019-02-07T02:09:21.608Z,27.20
2019-02-07T02:11:51.166Z,25.07
2019-02-07T02:14:20.728Z,25.73
2019-02-07T02:16:50.282Z,24.87
2019-02-07T02:19:19.928Z,24.90
2019-02-07T02:21:49.598Z,25.40
2019-02-07T02:24:19.101Z,25.10
2019-02-07T02:26:48.621Z,24.50
2019-02-07T02:29:18.254Z,23.67
2019-02-07T02:31:47.767Z,24.37
2019-02-07T02:34:17.267Z,24.07
2019-02-07T02:36:46.934Z,23.87
2019-02-07T02:39:16.468Z,24.90
2019-02-07T02:41:46.022Z,22.57
2019-02-07T02:44:15.550Z,23.10
2019-02-07T02:46:45.091Z,22.23
2019-02-07T02:49:14.910Z,23.50
2019-02-07T02:51:44.786Z,22.13
2019-02-07T02:54:33.390Z,20.67
2019-02-07T02:57:03.040Z,22.03
2019-02-07T02:59:32.999Z,21.53
2019-02-07T03:02:20.700Z,19.73
2019-02-07T03:04:56.421Z,21.67
2019-02-07T03:07:45.153Z,20.77
2019-02-07T03:10:39.561Z,19.80
2019-02-07T03:13:31.067Z,18.57
2019-02-07T03:16:22.667Z,18.97
2019-02-07T03:19:14.263Z,20.90
2019-02-07T03:22:11.969Z,19.40
2019-02-07T03:25:03.210Z,18.17
2019-02-07T03:28:03.851Z,19.03
2019-02-07T03:30:55.953Z,17.27
2019-02-07T03:33:56.735Z,18.03
2019-02-07T03:36:54.647Z,18.97
2019-02-07T03:39:48.095Z,19.30
2019-02-07T03:42:35.235Z,19.57
2019-02-07T03:45:30.065Z,18.53
2019-02-07T03:48:16.023Z,17.30
2019-02-07T03:51:04.489Z,17.47
2019-02-07T03:54:02.443Z,18.20
2019-02-07T03:57:00.040Z,18.47
2019-02-07T03:59:51.290Z,16.73
2019-02-07T04:02:58.351Z,17.27
2019-02-07T04:06:01.805Z,17.03
2019-02-07T04:08:53.007Z,17.40
2019-02-07T04:11:47.346Z,16.73
2019-02-07T04:14:47.916Z,17.33
2019-02-07T04:17:42.714Z,17.70
2019-02-07T04:20:49.982Z,16.50
2019-02-07T04:23:41.565Z,16.57
2019-02-07T04:26:28.652Z,16.23
2019-02-07T04:29:17.523Z,17.33
2019-02-07T04:32:04.741Z,15.67
2019-02-07T04:35:00.696Z,17.37
2019-02-07T04:37:46.225Z,16.43
2019-02-07T04:40:43.825Z,15.67
2019-02-07T04:43:42.180Z,17.37
2019-02-07T04:46:31.429Z,14.97
2019-02-07T04:49:29.688Z,16.27
2019-02-07T04:52:27.606Z,16.43
2019-02-07T04:55:34.480Z,15.90
2019-02-07T04:58:25.587Z,16.83
2019-02-07T05:01:32.003Z,16.30
2019-02-07T05:04:12.935Z,16.03
2019-02-07T05:07:01.392Z,16.73
2019-02-07T05:09:49.879Z,15.40
2019-02-07T05:12:38.425Z,16.33
2019-02-07T05:15:30.435Z,15.60
2019-02-07T05:18:18.989Z,15.57
2019-02-07T05:21:09.461Z,16.43
2019-02-07T05:23:57.951Z,15.33
2019-02-07T05:26:38.964Z,15.20
2019-02-07T05:29:15.191Z,16.40
2019-02-07T05:32:02.664Z,15.07
2019-02-07T05:34:51.149Z,15.73
2019-02-07T05:37:27.603Z,16.10
2019-02-07T05:40:12.610Z,17.13
2019-02-07T05:43:00.206Z,16.77
2019-02-07T05:45:47.140Z,15.97
2019-02-07T05:48:44.859Z,16.90
2019-02-07T05:51:33.515Z,19.00
2019-02-07T05:54:28.103Z,16.43
2019-02-07T05:57:07.553Z,15.53
2019-02-07T06:00:01.656Z,17.27
2019-02-07T06:02:42.091Z,17.63
2019-02-07T06:05:36.686Z,18.37
2019-02-07T06:08:23.794Z,17.00
2019-02-07T06:11:15.345Z,16.83
2019-02-07T06:14:02.789Z,17.27
2019-02-07T06:16:50.186Z,16.90
2019-02-07T06:19:35.369Z,18.07
2019-02-07T06:22:20.619Z,17.63
2019-02-07T06:25:09.054Z,19.03
2019-02-07T06:27:56.599Z,20.53
2019-02-07T06:30:43.693Z,17.40
2019-02-07T06:33:38.251Z,17.80
2019-02-07T06:36:29.674Z,17.80
2019-02-07T06:39:36.384Z,17.50
2019-02-07T06:42:31.247Z,18.63
2019-02-07T06:45:18.572Z,18.43
2019-02-07T06:48:06.111Z,18.03
2019-02-07T06:51:09.926Z,18.33
2019-02-07T06:53:57.244Z,18.33
2019-02-07T06:56:51.732Z,19.80
2019-02-07T06:59:37.182Z,17.03
2019-02-07T07:02:25.056Z,18.50
2019-02-07T07:05:11.176Z,16.97
2019-02-07T07:07:59.802Z,17.17
2019-02-07T07:10:47.254Z,18.53
2019-02-07T07:13:25.875Z,15.33
2019-02-07T07:16:17.324Z,16.80
2019-02-07T07:19:04.930Z,16.93
2019-02-07T07:22:08.189Z,17.10
2019-02-07T07:24:59.972Z,18.97
2019-02-07T07:27:54.378Z,17.40
2019-02-07T07:30:48.655Z,18.60
2019-02-07T07:33:39.960Z,18.63
2019-02-07T07:36:35.627Z,17.37
2019-02-07T07:39:23.937Z,17.60
2019-02-07T07:42:05.073Z,16.47
2019-02-07T07:45:02.806Z,16.27
2019-02-07T07:48:07.207Z,17.63
2019-02-07T07:50:58.551Z,16.00
2019-02-07T07:53:47.689Z,15.80
2019-02-07T07:56:45.696Z,15.53
2019-02-07T07:59:43.422Z,16.37
2019-02-07T08:02:46.911Z,16.47
2019-02-07T08:05:26.890Z,14.83
2019-02-07T08:08:24.642Z,16.73
2019-02-07T08:11:22.674Z,15.23
2019-02-07T08:14:20.144Z,15.93
2019-02-07T08:17:23.897Z,15.73
2019-02-07T08:20:27.491Z,15.07
2019-02-07T08:23:16.107Z,16.07
2019-02-07T08:26:13.988Z,13.93
2019-02-07T08:28:49.676Z,14.40
2019-02-07T08:31:36.910Z,14.23
2019-02-07T08:34:32.494Z,14.50
2019-02-07T08:37:32.994Z,15.07
2019-02-07T08:40:20.364Z,14.63
2019-02-07T08:43:11.661Z,14.73
2019-02-07T08:46:18.615Z,15.20
2019-02-07T08:49:12.964Z,14.40
2019-02-07T08:52:01.676Z,14.10
2019-02-07T08:55:08.578Z,14.43
2019-02-07T08:57:56.025Z,14.33
2019-02-07T09:00:41.224Z,14.47
2019-02-07T09:03:21.029Z,14.90
2019-02-07T09:06:12.306Z,14.67
2019-02-07T09:08:59.876Z,13.37
2019-02-07T09:11:43.770Z,14.97
2019-02-07T09:14:41.393Z,15.07
2019-02-07T09:17:28.721Z,14.73
2019-02-07T09:20:16.074Z,13.77
2019-02-07T09:23:11.014Z,15.13
2019-02-07T09:26:08.630Z,14.67
2019-02-07T09:29:15.674Z,14.23
2019-02-07T09:32:01.407Z,13.80
2019-02-07T09:34:52.941Z,13.90
2019-02-07T09:37:50.568Z,13.07
2019-02-07T09:40:47.709Z,13.80
2019-02-07T09:43:35.185Z,12.90
2019-02-07T09:46:29.717Z,13.87
2019-02-07T09:49:24.670Z,13.30
2019-02-07T09:52:22.518Z,12.13
2019-02-07T09:55:10.237Z,13.53
2019-02-07T09:57:50.031Z,12.83
2019-02-07T10:00:41.386Z,12.33
2019-02-07T10:03:25.668Z,12.27
2019-02-07T10:06:14.863Z,13.00
2019-02-07T10:09:09.260Z,13.70
2019-02-07T10:11:56.817Z,12.80
2019-02-07T10:15:04.198Z,12.67
2019-02-07T10:17:54.339Z,12.63
2019-02-07T10:20:45.822Z,12.77
2019-02-07T10:23:33.216Z,12.13
2019-02-07T10:26:20.423Z,10.23
2019-02-07T10:29:10.794Z,11.60
2019-02-07T10:32:05.182Z,11.40
2019-02-07T10:35:02.734Z,11.90
2019-02-07T10:37:50.190Z,10.97
2019-02-07T10:40:35.965Z,11.70
2019-02-07T10:43:32.424Z,10.77
2019-02-07T10:46:21.551Z,10.30
2019-02-07T10:49:13.157Z,10.67
2019-02-07T10:52:07.505Z,10.10
2019-02-07T10:54:56.238Z,10.47
2019-02-07T10:57:54.091Z,11.10
2019-02-07T11:00:42.309Z,11.03
2019-02-07T11:03:30.775Z,11.20
2019-02-07T11:06:19.804Z,11.57
2019-02-07T11:09:06.901Z,11.77
2019-02-07T11:12:13.593Z,10.37
2019-02-07T11:15:11.411Z,11.57
2019-02-07T11:18:18.251Z,11.17
2019-02-07T11:21:15.648Z,10.80
2019-02-07T11:24:02.727Z,9.87
2019-02-07T11:26:50.048Z,11.20
2019-02-07T11:29:49.112Z,11.33
2019-02-07T11:33:01.482Z,10.80
2019-02-07T11:36:31.895Z,10.97
2019-02-07T11:39:26.190Z,10.63
2019-02-07T11:42:20.669Z,10.77
2019-02-07T11:44:59.647Z,10.10
2019-02-07T11:48:02.116Z,9.33
2019-02-07T11:50:50.508Z,9.70
2019-02-07T11:53:34.523Z,9.97
2019-02-07T11:56:22.529Z,10.77
2019-02-07T11:59:17.105Z,10.00
2019-02-07T12:02:09.086Z,9.47
2019-02-07T12:04:50.231Z,9.00
2019-02-07T12:07:50.872Z,10.03
2019-02-07T12:10:34.716Z,10.10
2019-02-07T12:13:22.222Z,10.13
2019-02-07T12:16:17.111Z,9.97
2019-02-07T12:19:05.812Z,10.23
2019-02-07T12:22:03.093Z,9.63
2019-02-07T12:25:05.269Z,10.07
2019-02-07T12:27:53.819Z,9.03
2019-02-07T12:30:42.471Z,9.90
2019-02-07T12:33:34.668Z,8.47
2019-02-07T12:36:26.148Z,8.80
2019-02-07T12:39:10.945Z,8.90
2019-02-07T12:42:10.095Z,9.47
2019-02-07T12:44:56.250Z,9.13
2019-02-07T12:47:45.270Z,8.80
2019-02-07T12:50:32.812Z,8.77
2019-02-07T12:53:16.578Z,9.83
2019-02-07T12:56:03.080Z,8.30
2019-02-07T12:58:50.492Z,8.43
2019-02-07T13:01:46.548Z,8.73
2019-02-07T13:04:33.816Z,8.97
2019-02-07T13:07:32.712Z,8.93
2019-02-07T13:10:14.855Z,8.70
2019-02-07T13:13:06.443Z,9.23
2019-02-07T13:16:01.271Z,9.47
2019-02-07T13:18:56.509Z,8.77
2019-02-07T13:21:47.496Z,8.57
2019-02-07T13:24:34.918Z,8.13
2019-02-07T13:27:17.095Z,8.37
2019-02-07T13:30:11.800Z,8.57
2019-02-07T13:32:50.868Z,8.37
2019-02-07T13:35:40.176Z,8.23
2019-02-07T13:38:30.865Z,8.50
2019-02-07T13:41:18.207Z,9.00
2019-02-07T13:44:06.765Z,8.17
2019-02-07T13:46:47.667Z,9.70
2019-02-07T13:49:39.131Z,8.27
2019-02-07T13:52:27.822Z,8.83
2019-02-07T13:55:25.115Z,9.77
2019-02-07T13:58:12.213Z,9.57
2019-02-07T14:01:00.733Z,9.13
2019-02-07T14:03:47.847Z,9.20
2019-02-07T14:06:42.399Z,9.27
2019-02-07T14:09:40.993Z,9.40
2019-02-07T14:12:38.803Z,8.77
2019-02-07T14:15:25.649Z,9.63
2019-02-07T14:18:20.146Z,8.93
2019-02-07T14:21:03.876Z,10.37
2019-02-07T14:23:47.782Z,9.80
2019-02-07T14:26:36.525Z,10.07
2019-02-07T14:29:17.002Z,9.70
2019-02-07T14:32:04.348Z,10.03
2019-02-07T14:34:51.370Z,10.27
2019-02-07T14:37:32.471Z,10.43
2019-02-07T14:40:18.902Z,10.40
2019-02-07T14:42:56.424Z,11.77
2019-02-07T14:45:47.859Z,10.97
2019-02-07T14:48:24.402Z,10.07
2019-02-07T14:50:55.744Z,10.60
2019-02-07T14:53:26.861Z,10.40
2019-02-07T14:55:56.405Z,11.13
2019-02-07T14:58:26.658Z,10.83
2019-02-07T15:00:56.350Z,10.00
2019-02-07T15:03:26.416Z,9.33
2019-02-07T15:05:58.634Z,8.73
2019-02-07T15:08:28.149Z,9.10
2019-02-07T15:10:57.734Z,10.20
2019-02-07T15:13:27.566Z,9.93
2019-02-07T15:15:57.110Z,14.57
2019-02-07T15:18:26.946Z,10.97
2019-02-07T15:20:56.474Z,9.30
2019-02-07T15:23:26.064Z,10.93
2019-02-07T15:25:56.987Z,10.07
2019-02-07T15:28:27.018Z,10.40
2019-02-07T15:30:56.540Z,8.13
2019-02-07T15:33:28.096Z,9.23
2019-02-07T15:35:57.677Z,9.03
2019-02-07T15:38:27.306Z,8.10
2019-02-07T15:40:57.015Z,9.27
2019-02-07T15:43:26.739Z,8.43
2019-02-07T15:45:57.472Z,8.10
2019-02-07T15:48:26.964Z,14.73
2019-02-07T15:50:56.486Z,11.37
2019-02-07T15:53:26.002Z,8.80
2019-02-07T15:55:55.558Z,9.00
2019-02-07T15:59:02.472Z,8.00
2019-02-07T16:01:42.168Z,8.97
2019-02-07T16:04:17.826Z,9.50
2019-02-07T16:06:47.815Z,8.23
2019-02-07T16:09:18.237Z,8.20
2019-02-07T16:11:47.896Z,8.97
2019-02-07T16:14:17.439Z,8.67
2019-02-07T16:16:47.190Z,9.07
2019-02-07T16:19:17.363Z,10.27
2019-02-07T16:21:46.891Z,9.30
2019-02-07T16:24:16.454Z,9.00
2019-02-07T16:26:46.102Z,9.97
2019-02-07T16:29:15.626Z,10.77
2019-02-07T16:31:45.471Z,11.40
2019-02-07T16:34:15.758Z,11.17
2019-02-07T16:36:45.519Z,11.33
2019-02-07T16:39:15.686Z,8.63
2019-02-07T16:41:45.403Z,9.47
2019-02-07T16:44:15.614Z,9.13
2019-02-07T16:46:45.142Z,9.33
2019-02-07T16:49:15.055Z,9.00
2019-02-07T16:51:44.608Z,8.70
2019-02-07T16:54:15.379Z,9.00
2019-02-07T16:56:44.897Z,9.17
2019-02-07T16:59:14.713Z,9.00
2019-02-07T17:01:44.300Z,9.10
2019-02-07T17:04:13.934Z,9.17
2019-02-07T17:06:43.470Z,10.47
2019-02-07T17:09:19.400Z,10.73
2019-02-07T17:11:49.164Z,11.80
2019-02-07T17:14:19.048Z,12.67
2019-02-07T17:16:50.813Z,10.47
2019-02-07T17:19:20.487Z,12.50
2019-02-07T17:21:50.035Z,12.73
2019-02-07T17:24:19.817Z,12.93
2019-02-07T17:26:49.343Z,13.07
2019-02-07T17:29:19.275Z,13.47
2019-02-07T17:31:48.741Z,14.63
2019-02-07T17:34:18.644Z,14.27
2019-02-07T17:36:48.286Z,14.10
2019-02-07T17:39:17.924Z,14.93
2019-02-07T17:41:47.531Z,16.50
2019-02-07T17:44:17.275Z,15.73
2019-02-07T17:46:46.798Z,14.67
2019-02-07T17:49:16.415Z,15.57
2019-02-07T17:51:46.089Z,15.60
2019-02-07T17:54:20.715Z,16.27
2019-02-07T17:56:50.407Z,19.63
2019-02-07T17:59:20.522Z,18.73
2019-02-07T18:01:50.289Z,26.53
2019-02-07T18:04:20.114Z,23.20
2019-02-07T18:06:49.816Z,20.67
2019-02-07T18:09:19.609Z,20.13
2019-02-07T18:11:49.500Z,19.63
2019-02-07T18:14:21.052Z,19.23
2019-02-07T18:16:50.684Z,19.80
2019-02-07T18:19:20.210Z,20.40
2019-02-07T18:21:49.865Z,18.47
2019-02-07T18:24:19.788Z,18.87
2019-02-07T18:26:49.475Z,20.97
2019-02-07T18:29:19.027Z,20.27
2019-02-07T18:31:48.626Z,19.87
2019-02-07T18:34:18.356Z,20.67
2019-02-07T18:36:48.006Z,21.17
2019-02-07T18:39:17.517Z,19.03
2019-02-07T18:41:47.217Z,21.63
2019-02-07T18:44:16.801Z,21.57
2019-02-07T18:46:46.846Z,22.03
2019-02-07T18:49:16.386Z,23.90
2019-02-07T18:51:46.129Z,18.27
2019-02-07T18:54:15.890Z,18.77
2019-02-07T18:56:45.544Z,17.00
2019-02-07T18:59:15.101Z,17.30
2019-02-07T19:01:44.838Z,18.80
2019-02-07T19:04:17.777Z,17.67
2019-02-07T19:06:47.369Z,17.67
2019-02-07T19:09:16.977Z,16.10
2019-02-07T19:11:46.552Z,16.30
2019-02-07T19:14:16.246Z,16.10
2019-02-07T19:16:45.937Z,16.90
2019-02-07T19:19:15.585Z,16.80
2019-02-07T19:21:56.551Z,18.47
2019-02-07T19:24:16.530Z,17.70
2019-02-07T19:26:47.215Z,17.57
2019-02-07T19:29:17.009Z,16.27
2019-02-07T19:31:46.442Z,16.50
2019-02-07T19:34:16.010Z,15.10
2019-02-07T19:36:45.566Z,17.07
2019-02-07T19:39:15.105Z,16.07
2019-02-07T19:41:44.638Z,15.90
2019-02-07T19:44:14.379Z,16.27
2019-02-07T19:46:43.915Z,18.13
2019-02-07T19:49:13.634Z,16.63
2019-02-07T19:51:43.319Z,16.57
2019-02-07T19:54:12.988Z,16.37
2019-02-07T19:56:42.565Z,16.87
2019-02-07T19:59:12.117Z,17.70
2019-02-07T20:01:41.689Z,15.53
2019-02-07T20:04:11.268Z,16.03
2019-02-07T20:06:41.542Z,15.90
2019-02-07T20:09:13.395Z,15.33
2019-02-07T20:11:43.323Z,14.97
2019-02-07T20:14:12.877Z,14.27
2019-02-07T20:16:42.391Z,15.87
2019-02-07T20:19:12.058Z,15.30
2019-02-07T20:21:41.612Z,15.80
2019-02-07T20:24:11.145Z,15.77
2019-02-07T20:26:40.792Z,16.40
2019-02-07T20:29:10.990Z,14.83
2019-02-07T20:31:40.465Z,14.30
2019-02-07T20:34:10.157Z,15.97
2019-02-07T20:36:39.767Z,15.27
2019-02-07T20:39:10.154Z,17.30
2019-02-07T20:41:40.165Z,17.33
2019-02-07T20:44:09.724Z,15.53
2019-02-07T20:46:39.339Z,16.13
2019-02-07T20:49:08.905Z,16.93
2019-02-07T20:51:38.474Z,17.83
2019-02-07T20:54:08.089Z,19.83
2019-02-07T20:56:37.705Z,17.20
2019-02-07T20:59:07.278Z,19.33
2019-02-07T21:01:37.013Z,18.00
2019-02-07T21:04:07.133Z,20.83
2019-02-07T21:06:36.660Z,17.17
2019-02-07T21:09:09.729Z,19.27
2019-02-07T21:11:39.426Z,19.53
2019-02-07T21:14:08.976Z,19.20
2019-02-07T21:16:38.830Z,17.30
2019-02-07T21:19:08.367Z,16.87
2019-02-07T21:21:38.039Z,17.13
2019-02-07T21:24:07.692Z,17.67
2019-02-07T21:26:37.199Z,17.93
2019-02-07T21:29:06.868Z,17.67
2019-02-07T21:31:36.906Z,17.47
2019-02-07T21:34:06.467Z,18.80
2019-02-07T21:36:36.053Z,17.73
2019-02-07T21:39:10.669Z,17.90
2019-02-07T21:41:40.170Z,17.70
2019-02-07T21:44:09.789Z,19.00
2019-02-07T21:46:39.699Z,18.47
2019-02-07T21:49:09.546Z,19.60
2019-02-07T21:51:39.147Z,19.43
2019-02-07T21:54:08.932Z,19.10
2019-02-07T21:56:38.501Z,18.00
2019-02-07T21:59:08.192Z,17.13
2019-02-07T22:01:37.706Z,19.47
2019-02-07T22:04:07.281Z,18.67
2019-02-07T22:06:36.874Z,18.20
2019-02-07T22:09:13.310Z,18.10
2019-02-07T22:11:42.844Z,19.27
2019-02-07T22:14:12.360Z,19.50
2019-02-07T22:16:42.086Z,18.80
2019-02-07T22:19:11.730Z,19.50
2019-02-07T22:21:41.252Z,19.20
2019-02-07T22:24:10.892Z,19.40
2019-02-07T22:26:40.434Z,19.00
2019-02-07T22:29:09.954Z,18.23
2019-02-07T22:31:39.677Z,19.90
2019-02-07T22:34:09.262Z,19.47
2019-02-07T22:36:38.774Z,18.10
2019-02-07T22:39:09.452Z,20.27
2019-02-07T22:41:38.958Z,20.67
2019-02-07T22:44:08.512Z,19.70
2019-02-07T22:46:38.057Z,19.20
2019-02-07T22:49:07.600Z,22.47
2019-02-07T22:51:37.131Z,24.03
2019-02-07T22:54:06.750Z,22.77
2019-02-07T22:56:44.308Z,23.00
2019-02-07T22:59:07.518Z,21.17
2019-02-07T23:01:52.562Z,22.83
2019-02-07T23:04:23.486Z,21.73
2019-02-07T23:06:53.094Z,20.23
2019-02-07T23:09:22.628Z,19.77
2019-02-07T23:11:52.979Z,20.53
2019-02-07T23:14:23.001Z,21.53
2019-02-07T23:16:52.581Z,22.73
2019-02-07T23:19:22.341Z,20.63
2019-02-07T23:21:51.865Z,21.67
2019-02-07T23:24:21.386Z,21.27
2019-02-07T23:26:51.340Z,20.77
2019-02-07T23:29:21.066Z,21.33
2019-02-07T23:31:50.583Z,20.80
2019-02-07T23:34:20.114Z,20.90
2019-02-07T23:36:49.774Z,23.90
2019-02-07T23:39:20.121Z,21.03
2019-02-07T23:41:49.951Z,22.10
2019-02-07T23:44:19.507Z,22.30
2019-02-07T23:46:49.011Z,22.80
2019-02-07T23:49:18.508Z,22.13
2019-02-07T23:51:48.164Z,21.33
2019-02-07T23:54:17.700Z,22.37
2019-02-07T23:56:47.586Z,22.50
2019-02-07T23:59:17.105Z,22.60
